createdAt,value
2023-01-18T04:45:21.129Z,1.28
2023-01-18T04:46:28.836Z,1.26
2023-01-18T04:47:28.095Z,1.26
2023-01-18T04:48:21.026Z,1.26
2023-01-18T04:49:29.065Z,1.24
2023-01-18T04:50:28.047Z,1.28
2023-01-18T04:51:29.187Z,1.26
2023-01-18T04:52:29.325Z,1.24
2023-01-18T04:54:42.937Z,1.24
2023-01-18T04:55:49.895Z,1.22
2023-01-18T04:56:51.434Z,1.23
2023-01-18T04:57:50.501Z,1.22
2023-01-18T04:58:50.144Z,1.22
2023-01-18T04:59:42.874Z,1.20
2023-01-18T05:00:50.454Z,1.19
2023-01-18T05:01:49.910Z,1.20
2023-01-18T05:02:50.371Z,1.16
2023-01-18T05:03:42.836Z,1.16
2023-01-18T05:06:05.965Z,1.16
2023-01-18T05:07:12.767Z,1.12
2023-01-18T05:08:13.735Z,1.12
2023-01-18T05:09:05.706Z,1.08
2023-01-18T05:10:13.236Z,1.06
2023-01-18T05:11:13.003Z,1.05
2023-01-18T05:12:05.698Z,1.05
2023-01-18T05:13:13.699Z,1.05
2023-01-18T05:14:05.675Z,1.02
2023-01-18T05:15:12.685Z,1.01
2023-01-18T05:16:06.329Z,1.04
2023-01-18T05:17:14.881Z,1.05
2023-01-18T05:18:14.157Z,1.08
2023-01-18T05:19:16.190Z,1.10
2023-01-18T05:20:13.677Z,1.10
2023-01-18T05:21:12.622Z,1.12
2023-01-18T05:22:13.104Z,1.13
2023-01-18T05:23:05.617Z,1.12
2023-01-18T05:24:13.617Z,1.13
2023-01-18T05:25:13.089Z,1.08
2023-01-18T05:26:13.560Z,1.06
2023-01-18T05:27:12.577Z,1.04
2023-01-18T05:28:12.679Z,1.02
2023-01-18T05:29:13.545Z,0.98
2023-01-18T05:30:13.548Z,0.95
2023-01-18T05:31:12.695Z,0.92
2023-01-18T05:32:13.538Z,0.88
2023-01-18T05:34:27.712Z,0.86
2023-01-18T05:39:14.405Z,0.83
2023-01-18T05:40:21.985Z,0.76
2023-01-18T05:41:19.924Z,0.73
2023-01-18T05:42:20.467Z,0.69
2023-01-18T05:43:21.579Z,0.68
2023-01-18T05:44:12.408Z,0.66
2023-01-18T05:45:20.731Z,0.68
2023-01-18T05:46:12.493Z,0.68
2023-01-18T05:47:20.581Z,0.69
2023-01-18T05:48:19.695Z,0.73
2023-01-18T05:49:19.691Z,0.76
2023-01-18T05:50:19.387Z,0.80
2023-01-18T05:51:20.370Z,0.91
2023-01-18T05:52:22.324Z,1.02
2023-01-18T05:53:19.339Z,1.06
2023-01-18T05:54:20.313Z,1.08
2023-01-18T05:55:20.416Z,1.08
2023-01-18T05:56:19.318Z,1.06
2023-01-18T05:57:20.606Z,1.06
2023-01-18T05:58:20.724Z,1.05
2023-01-18T05:59:21.175Z,1.05
2023-01-18T06:03:17.434Z,1.02
2023-01-18T06:04:24.417Z,0.99
2023-01-18T06:05:24.979Z,0.98
2023-01-18T06:07:39.305Z,0.96
2023-01-18T06:08:48.877Z,0.95
2023-01-18T06:11:19.153Z,0.94
2023-01-18T06:13:59.487Z,0.87
2023-01-18T06:15:04.730Z,0.86
2023-01-18T06:17:36.229Z,0.83
2023-01-18T06:20:18.101Z,0.81
2023-01-18T06:21:25.438Z,0.81
2023-01-18T06:23:57.286Z,0.78
2023-01-18T06:25:04.191Z,0.76
2023-01-18T06:26:04.356Z,0.74
2023-01-18T06:30:03.388Z,0.74
2023-01-18T06:31:10.321Z,0.73
2023-01-18T06:32:03.325Z,0.73
2023-01-18T06:33:11.314Z,0.70
2023-01-18T06:34:11.918Z,0.73
2023-01-18T06:35:12.740Z,0.73
2023-01-18T06:36:10.539Z,0.73
2023-01-18T06:37:10.286Z,0.73
2023-01-18T06:38:03.260Z,0.74
2023-01-18T06:40:30.654Z,0.76
2023-01-18T06:43:06.627Z,0.80
2023-01-18T06:44:14.613Z,0.81
2023-01-18T06:46:32.943Z,0.88
2023-01-18T06:47:37.977Z,0.88
2023-01-18T06:51:03.837Z,0.95
2023-01-18T06:53:27.747Z,0.99
2023-01-18T06:55:53.115Z,0.96
2023-01-18T06:56:58.801Z,0.96
2023-01-18T06:57:58.400Z,0.98
2023-01-18T06:58:59.427Z,0.98
2023-01-18T06:59:59.417Z,0.99
2023-01-18T07:00:51.383Z,0.99
2023-01-18T07:01:59.012Z,0.98
2023-01-18T07:02:59.805Z,0.98
2023-01-18T07:03:59.889Z,0.98
2023-01-18T07:04:58.316Z,0.96
2023-01-18T07:05:58.314Z,0.96
2023-01-18T07:06:51.295Z,0.95
2023-01-18T07:08:00.444Z,0.94
2023-01-18T07:09:01.309Z,0.94
2023-01-18T07:09:58.296Z,0.94
2023-01-18T07:10:51.265Z,0.94
2023-01-18T07:11:51.256Z,0.92
2023-01-18T07:12:51.246Z,0.92
2023-01-18T07:13:51.277Z,0.92
2023-01-18T07:14:51.232Z,0.94
2023-01-18T07:15:51.218Z,0.92
2023-01-18T07:16:51.196Z,0.92
2023-01-18T07:17:51.203Z,0.87
2023-01-18T07:18:51.192Z,0.91
2023-01-18T07:19:51.182Z,0.88
2023-01-18T07:20:51.166Z,0.87
2023-01-18T07:21:51.130Z,0.87
2023-01-18T07:22:51.120Z,0.86
2023-01-18T07:23:54.230Z,0.86
2023-01-18T07:24:51.120Z,0.86
2023-01-18T07:25:51.103Z,0.84
2023-01-18T07:26:51.081Z,0.83
2023-01-18T07:27:51.106Z,0.83
2023-01-18T07:28:51.100Z,0.81
2023-01-18T07:29:51.087Z,0.80
2023-01-18T07:30:51.068Z,0.80
2023-01-18T07:31:51.066Z,0.81
2023-01-18T07:32:51.057Z,0.81
2023-01-18T07:33:51.045Z,0.83
2023-01-18T07:34:51.028Z,0.81
2023-01-18T07:35:51.021Z,0.81
2023-01-18T07:36:50.981Z,0.83
2023-01-18T07:37:50.999Z,0.83
2023-01-18T07:38:53.993Z,0.84
2023-01-18T07:39:51.001Z,0.83
2023-01-18T07:40:50.951Z,0.87
2023-01-18T07:41:50.969Z,0.86
2023-01-18T07:42:50.919Z,0.86
2023-01-18T07:43:50.939Z,0.86
2023-01-18T07:44:50.937Z,0.87
2023-01-18T07:45:51.116Z,0.87
2023-01-18T07:46:50.912Z,0.87
2023-01-18T07:47:50.900Z,0.91
2023-01-18T07:48:50.864Z,0.91
2023-01-18T07:49:50.866Z,0.91
2023-01-18T07:50:50.847Z,0.92
2023-01-18T07:51:50.869Z,0.95
2023-01-18T07:52:50.869Z,0.92
2023-01-18T07:53:53.870Z,0.95
2023-01-18T07:54:50.847Z,0.92
2023-01-18T07:55:50.821Z,0.92
2023-01-18T07:56:50.833Z,0.88
2023-01-18T07:57:50.792Z,0.88
2023-01-18T07:58:50.802Z,0.88
2023-01-18T07:59:50.760Z,0.91
2023-01-18T08:00:50.825Z,0.94
2023-01-18T08:01:50.790Z,0.94
2023-01-18T08:02:50.768Z,0.94
2023-01-18T08:03:50.741Z,0.96
2023-01-18T08:04:50.862Z,0.96
2023-01-18T08:05:50.733Z,0.98
2023-01-18T08:06:50.731Z,0.98
2023-01-18T08:07:50.693Z,0.98
2023-01-18T08:08:53.695Z,0.98
2023-01-18T08:09:50.703Z,0.98
2023-01-18T08:10:50.687Z,1.01
2023-01-18T08:11:50.667Z,1.02
2023-01-18T08:12:50.634Z,1.02
2023-01-18T08:13:50.689Z,1.01
2023-01-18T08:14:50.605Z,1.01
2023-01-18T08:15:50.623Z,1.01
2023-01-18T08:16:50.593Z,1.02
2023-01-18T08:17:50.613Z,1.02
2023-01-18T08:18:50.606Z,1.05
2023-01-18T08:19:50.582Z,1.06
2023-01-18T08:20:50.573Z,1.08
2023-01-18T08:21:50.557Z,1.10
2023-01-18T08:22:50.524Z,1.13
2023-01-18T08:23:53.579Z,1.16
2023-01-18T08:24:50.561Z,1.16
2023-01-18T08:25:50.543Z,1.14
2023-01-18T08:26:50.528Z,1.14
2023-01-18T08:27:50.490Z,1.17
2023-01-18T08:28:50.505Z,1.19
2023-01-18T08:29:50.461Z,1.17
2023-01-18T08:30:50.466Z,1.19
2023-01-18T08:31:50.446Z,1.22
2023-01-18T08:32:50.439Z,1.22
2023-01-18T08:33:50.450Z,1.19
2023-01-18T08:34:50.440Z,1.22
2023-01-18T08:35:50.498Z,1.22
2023-01-18T08:36:50.396Z,1.23
2023-01-18T08:37:50.392Z,1.24
2023-01-18T08:38:53.421Z,1.23
2023-01-18T08:39:50.411Z,1.24
2023-01-18T08:40:50.367Z,1.28
2023-01-18T08:41:50.356Z,1.30
2023-01-18T08:42:50.364Z,1.34
2023-01-18T08:43:50.332Z,1.37
2023-01-18T08:44:50.318Z,1.42
2023-01-18T08:45:50.320Z,1.42
2023-01-18T08:46:50.329Z,1.41
2023-01-18T08:47:50.286Z,1.45
2023-01-18T08:48:50.311Z,1.50
2023-01-18T08:49:50.277Z,1.49
2023-01-18T08:50:51.744Z,1.52
2023-01-18T08:51:50.240Z,1.49
2023-01-18T08:52:50.230Z,1.49
2023-01-18T08:53:53.230Z,1.50
2023-01-18T08:54:50.259Z,1.52
2023-01-18T08:55:50.250Z,1.53
2023-01-18T08:56:50.227Z,1.53
2023-01-18T08:57:50.251Z,1.48
2023-01-18T08:58:50.227Z,1.48
2023-01-18T08:59:50.167Z,1.50
2023-01-18T09:00:50.220Z,1.53
2023-01-18T09:01:50.180Z,1.56
2023-01-18T09:02:50.179Z,1.55
2023-01-18T09:03:50.156Z,1.56
2023-01-18T09:04:50.142Z,1.59
2023-01-18T09:05:50.156Z,1.56
2023-01-18T09:06:51.080Z,1.58
2023-01-18T09:07:50.117Z,1.59
2023-01-18T09:08:53.128Z,1.58
2023-01-18T09:09:50.092Z,1.60
2023-01-18T09:10:50.182Z,1.63
2023-01-18T09:11:50.122Z,1.67
2023-01-18T09:12:52.195Z,1.67
2023-01-18T09:14:00.332Z,1.73
2023-01-18T09:14:50.020Z,1.77
2023-01-18T09:15:50.052Z,1.80
2023-01-18T09:16:50.024Z,1.85
2023-01-18T09:17:50.036Z,1.87
2023-01-18T09:18:49.983Z,1.88
2023-01-18T09:19:50.002Z,1.89
2023-01-18T09:20:49.982Z,1.95
2023-01-18T09:21:49.979Z,1.99
2023-01-18T09:22:49.974Z,2.06
2023-01-18T09:23:53.006Z,2.10
2023-01-18T09:24:49.943Z,2.14
2023-01-18T09:25:49.915Z,2.18
2023-01-18T09:26:49.934Z,2.25
2023-01-18T09:27:49.979Z,2.31
2023-01-18T09:28:49.925Z,2.32
2023-01-18T09:29:49.904Z,2.38
2023-01-18T09:30:49.894Z,2.39
2023-01-18T09:31:49.950Z,2.39
2023-01-18T09:32:49.882Z,2.42
2023-01-18T09:33:53.721Z,2.43
2023-01-18T09:34:50.848Z,2.47
2023-01-18T09:35:49.814Z,2.49
2023-01-18T09:36:49.810Z,2.50
2023-01-18T09:37:49.800Z,2.50
2023-01-18T09:38:52.776Z,2.50
2023-01-18T09:39:52.407Z,2.49
2023-01-18T09:40:49.787Z,2.47
2023-01-18T09:41:49.754Z,2.38
2023-01-18T09:42:49.775Z,2.35
2023-01-18T09:43:49.771Z,2.28
2023-01-18T09:44:49.717Z,2.24
2023-01-18T09:45:49.739Z,2.11
2023-01-18T09:46:51.333Z,2.04
2023-01-18T09:47:49.718Z,1.99
2023-01-18T09:48:49.720Z,1.91
2023-01-18T09:49:49.695Z,1.84
2023-01-18T09:50:49.700Z,1.77
2023-01-18T09:51:49.707Z,1.74
2023-01-18T09:52:49.650Z,1.70
2023-01-18T09:53:52.661Z,1.70
2023-01-18T09:54:49.640Z,1.71
2023-01-18T09:55:49.614Z,1.71
2023-01-18T09:56:49.608Z,1.74
2023-01-18T09:57:49.624Z,1.74
2023-01-18T09:58:49.603Z,1.76
2023-01-18T09:59:49.580Z,1.78
2023-01-18T10:00:49.728Z,1.78
2023-01-18T10:01:49.836Z,1.81
2023-01-18T10:02:49.671Z,1.85
2023-01-18T10:03:49.620Z,1.91
2023-01-18T10:04:49.519Z,1.95
2023-01-18T10:05:49.520Z,2.00
2023-01-18T10:06:49.645Z,2.08
2023-01-18T10:07:49.538Z,2.11
2023-01-18T10:08:52.481Z,2.17
2023-01-18T10:09:49.550Z,2.25
2023-01-18T10:10:49.505Z,2.31
2023-01-18T10:11:49.501Z,2.38
2023-01-18T10:12:49.508Z,2.43
2023-01-18T10:13:49.430Z,2.50
2023-01-18T10:14:49.574Z,2.57
2023-01-18T10:15:49.430Z,2.61
2023-01-18T10:16:49.442Z,2.62
2023-01-18T10:17:49.583Z,2.69
2023-01-18T10:18:49.419Z,2.75
2023-01-18T10:19:49.420Z,2.77
2023-01-18T10:20:49.399Z,2.83
2023-01-18T10:21:49.413Z,2.89
2023-01-18T10:22:49.357Z,2.93
2023-01-18T10:23:52.339Z,2.97
2023-01-18T10:24:49.388Z,2.98
2023-01-18T10:25:49.319Z,2.98
2023-01-18T10:26:49.312Z,2.97
2023-01-18T10:27:49.296Z,3.01
2023-01-18T10:28:49.395Z,3.01
2023-01-18T10:29:49.308Z,3.01
2023-01-18T10:30:49.303Z,3.00
2023-01-18T10:31:49.337Z,3.03
2023-01-18T10:32:49.277Z,2.98
2023-01-18T10:33:49.233Z,3.00
2023-01-18T10:34:49.276Z,3.03
2023-01-18T10:35:49.243Z,3.05
2023-01-18T10:36:49.205Z,3.08
2023-01-18T10:37:49.236Z,3.07
2023-01-18T10:38:52.187Z,3.05
2023-01-18T10:39:49.189Z,3.01
2023-01-18T10:40:49.196Z,3.05
2023-01-18T10:41:49.154Z,3.03
2023-01-18T10:42:49.155Z,3.00
2023-01-18T10:43:49.163Z,3.03
2023-01-18T10:44:49.127Z,2.98
2023-01-18T10:45:49.279Z,3.00
2023-01-18T10:46:49.108Z,2.98
2023-01-18T10:47:49.115Z,2.98
2023-01-18T10:48:49.109Z,2.98
2023-01-18T10:49:49.109Z,3.03
2023-01-18T10:50:50.047Z,3.05
2023-01-18T10:51:49.080Z,3.08
2023-01-18T10:52:49.045Z,3.13
2023-01-18T10:53:52.039Z,3.14
2023-01-18T10:54:49.040Z,3.19
2023-01-18T10:55:49.045Z,3.16
2023-01-18T10:56:49.033Z,3.13
2023-01-18T10:57:49.016Z,3.13
2023-01-18T10:58:49.016Z,3.11
2023-01-18T10:59:48.994Z,3.14
2023-01-18T11:00:49.026Z,3.13
2023-01-18T11:01:49.161Z,3.05
2023-01-18T11:02:48.979Z,3.07
2023-01-18T11:03:48.945Z,3.07
2023-01-18T11:04:48.939Z,3.07
2023-01-18T11:05:48.926Z,3.08
2023-01-18T11:06:48.903Z,3.13
2023-01-18T11:07:48.889Z,3.08
2023-01-18T11:08:51.888Z,3.07
2023-01-18T11:09:48.920Z,3.10
2023-01-18T11:10:48.884Z,3.13
2023-01-18T11:11:48.839Z,3.14
2023-01-18T11:12:48.858Z,3.18
2023-01-18T11:13:49.904Z,3.19
2023-01-18T11:14:48.873Z,3.19
2023-01-18T11:15:48.829Z,3.07
2023-01-18T11:16:48.828Z,3.04
2023-01-18T11:17:48.818Z,2.98
2023-01-18T11:18:48.780Z,2.90
2023-01-18T11:19:48.785Z,2.79
2023-01-18T11:20:48.751Z,2.75
2023-01-18T11:21:51.478Z,2.79
2023-01-18T11:22:48.725Z,2.82
2023-01-18T11:23:51.741Z,2.82
2023-01-18T11:24:48.759Z,2.87
2023-01-18T11:25:48.992Z,2.83
2023-01-18T11:26:48.715Z,2.85
2023-01-18T11:27:48.684Z,2.83
2023-01-18T11:28:48.673Z,2.83
2023-01-18T11:29:48.700Z,2.85
2023-01-18T11:30:48.682Z,2.87
2023-01-18T11:31:48.781Z,2.89
2023-01-18T11:32:48.631Z,2.93
2023-01-18T11:33:48.645Z,2.97
2023-01-18T11:34:48.624Z,2.93
2023-01-18T11:35:48.617Z,2.93
2023-01-18T11:36:48.581Z,2.95
2023-01-18T11:37:48.574Z,2.93
2023-01-18T11:38:51.583Z,2.97
2023-01-18T11:39:48.584Z,3.04
2023-01-18T11:40:48.743Z,3.08
2023-01-18T11:41:48.570Z,3.19
2023-01-18T11:42:48.551Z,3.25
2023-01-18T11:43:48.508Z,3.31
2023-01-18T11:44:48.534Z,3.31
2023-01-18T11:45:48.518Z,3.34
2023-01-18T11:46:48.503Z,3.37
2023-01-18T11:47:48.535Z,3.42
2023-01-18T11:48:48.498Z,3.45
2023-01-18T11:49:48.474Z,3.47
2023-01-18T11:50:48.434Z,3.45
2023-01-18T11:51:48.561Z,3.45
2023-01-18T11:52:48.417Z,3.45
2023-01-18T11:53:51.435Z,3.44
2023-01-18T11:54:48.446Z,3.45
2023-01-18T11:55:48.375Z,3.47
2023-01-18T11:56:48.413Z,3.51
2023-01-18T11:57:48.368Z,3.53
2023-01-18T11:58:48.468Z,3.53
2023-01-18T11:59:48.367Z,3.48
2023-01-18T12:00:48.402Z,3.50
2023-01-18T12:01:48.344Z,3.50
2023-01-18T12:02:48.466Z,3.53
2023-01-18T12:03:48.395Z,3.58
2023-01-18T12:04:48.284Z,3.55
2023-01-18T12:05:48.310Z,3.53
2023-01-18T12:06:48.269Z,3.50
2023-01-18T12:07:48.514Z,3.50
2023-01-18T12:08:51.256Z,3.50
2023-01-18T12:09:48.311Z,3.53
2023-01-18T12:10:48.251Z,3.60
2023-01-18T12:11:48.247Z,3.68
2023-01-18T12:12:48.257Z,3.77
2023-01-18T12:13:48.259Z,3.84
2023-01-18T12:14:48.262Z,3.87
2023-01-18T12:15:48.216Z,3.81
2023-01-18T12:16:48.278Z,3.86
2023-01-18T12:17:48.219Z,3.86
2023-01-18T12:18:49.149Z,3.84
2023-01-18T12:19:48.188Z,3.84
2023-01-18T12:20:48.266Z,3.86
2023-01-18T12:21:48.208Z,3.87
2023-01-18T12:22:48.132Z,3.74
2023-01-18T12:23:51.118Z,3.74
2023-01-18T12:24:48.116Z,3.77
2023-01-18T12:25:48.105Z,3.74
2023-01-18T12:26:49.062Z,3.74
2023-01-18T12:27:48.081Z,3.70
2023-01-18T12:28:48.031Z,3.69
2023-01-18T12:29:48.064Z,3.66
2023-01-18T12:30:48.078Z,3.56
2023-01-18T12:31:48.028Z,3.55
2023-01-18T12:32:49.679Z,3.55
2023-01-18T12:33:48.003Z,3.59
2023-01-18T12:34:47.966Z,3.48
2023-01-18T12:35:47.991Z,3.47
2023-01-18T12:36:47.973Z,3.42
2023-01-18T12:37:47.991Z,3.42
2023-01-18T12:38:50.922Z,3.37
2023-01-18T12:39:47.963Z,3.41
2023-01-18T12:40:47.915Z,3.42
2023-01-18T12:41:47.891Z,3.37
2023-01-18T12:42:47.921Z,3.36
2023-01-18T12:43:48.074Z,3.37
2023-01-18T12:44:47.901Z,3.44
2023-01-18T12:45:47.929Z,3.42
2023-01-18T12:46:47.888Z,3.47
2023-01-18T12:47:47.879Z,3.48
2023-01-18T12:48:47.881Z,3.50
2023-01-18T12:49:47.853Z,3.51
2023-01-18T12:50:47.796Z,3.50
2023-01-18T12:51:47.815Z,3.53
2023-01-18T12:52:47.816Z,3.47
2023-01-18T12:53:50.773Z,3.45
2023-01-18T12:54:47.783Z,3.45
2023-01-18T12:55:47.746Z,3.40
2023-01-18T12:56:47.774Z,3.36
2023-01-18T12:57:47.768Z,3.32
2023-01-18T12:58:47.742Z,3.31
2023-01-18T12:59:47.719Z,3.29
2023-01-18T13:00:47.764Z,3.23
2023-01-18T13:01:47.818Z,3.13
2023-01-18T13:02:47.719Z,3.07
2023-01-18T13:03:47.696Z,3.00
2023-01-18T13:04:47.655Z,2.93
2023-01-18T13:05:47.675Z,2.72
2023-01-18T13:06:47.666Z,2.57
2023-01-18T13:07:47.619Z,2.47
2023-01-18T13:08:50.645Z,2.43
2023-01-18T13:09:47.623Z,2.42
2023-01-18T13:10:47.622Z,2.35
2023-01-18T13:11:47.656Z,2.28
2023-01-18T13:12:47.617Z,2.25
2023-01-18T13:13:47.579Z,2.20
2023-01-18T13:14:47.578Z,2.17
2023-01-18T13:15:47.568Z,2.17
2023-01-18T13:16:47.544Z,2.14
2023-01-18T13:17:47.638Z,2.10
2023-01-18T13:18:47.534Z,2.07
2023-01-18T13:19:47.515Z,2.06
2023-01-18T13:20:47.521Z,2.06
2023-01-18T13:21:47.502Z,2.04
2023-01-18T13:22:47.477Z,2.04
2023-01-18T13:23:50.458Z,2.07
2023-01-18T13:24:47.461Z,2.06
2023-01-18T13:25:47.488Z,2.06
2023-01-18T13:26:47.427Z,2.04
2023-01-18T13:27:47.412Z,1.97
2023-01-18T13:28:47.549Z,1.94
2023-01-18T13:29:47.388Z,1.92
2023-01-18T13:30:47.435Z,1.94
2023-01-18T13:31:47.389Z,1.92
2023-01-18T13:32:47.388Z,1.91
2023-01-18T13:33:47.345Z,1.91
2023-01-18T13:34:48.768Z,1.94
2023-01-18T13:35:48.326Z,1.92
2023-01-18T13:36:47.314Z,1.89
2023-01-18T13:37:48.339Z,1.89
2023-01-18T13:38:50.414Z,1.89
2023-01-18T13:39:47.327Z,1.87
2023-01-18T13:40:47.314Z,1.88
2023-01-18T13:41:47.266Z,1.91
2023-01-18T13:42:47.271Z,1.94
2023-01-18T13:43:47.276Z,1.92
2023-01-18T13:44:47.274Z,1.94
2023-01-18T13:45:47.225Z,1.97
2023-01-18T13:46:47.292Z,1.97
2023-01-18T13:47:47.246Z,2.04
2023-01-18T13:48:47.218Z,2.07
2023-01-18T13:49:47.200Z,2.10
2023-01-18T13:50:47.199Z,2.10
2023-01-18T13:51:47.230Z,2.15
2023-01-18T13:52:47.177Z,2.24
2023-01-18T13:53:50.145Z,2.28
2023-01-18T13:54:47.136Z,2.38
2023-01-18T13:55:47.165Z,2.43
2023-01-18T13:56:47.102Z,2.46
2023-01-18T13:57:47.146Z,2.51
2023-01-18T13:58:47.116Z,2.53
2023-01-18T13:59:47.083Z,2.54
2023-01-18T14:00:47.078Z,2.60
2023-01-18T14:01:47.136Z,2.61
2023-01-18T14:02:47.068Z,2.60
2023-01-18T14:03:47.082Z,2.54
2023-01-18T14:04:47.043Z,2.56
2023-01-18T14:05:47.028Z,2.51
2023-01-18T14:06:47.026Z,2.47
2023-01-18T14:07:47.013Z,2.47
2023-01-18T14:08:50.007Z,2.49
2023-01-18T14:09:47.029Z,2.44
2023-01-18T14:10:46.968Z,2.46
2023-01-18T14:11:46.951Z,2.43
2023-01-18T14:12:46.941Z,2.44
2023-01-18T14:13:46.930Z,2.44
2023-01-18T14:14:46.916Z,2.43
2023-01-18T14:15:46.971Z,2.36
2023-01-18T14:16:46.892Z,2.32
2023-01-18T14:17:58.209Z,2.31
2023-01-18T14:18:46.888Z,2.28
2023-01-18T14:19:46.915Z,2.28
2023-01-18T14:20:46.878Z,2.25
2023-01-18T14:21:46.828Z,2.25
2023-01-18T14:22:46.867Z,2.25
2023-01-18T14:23:49.808Z,2.25
2023-01-18T14:24:46.855Z,2.26
2023-01-18T14:25:46.829Z,2.22
2023-01-18T14:26:46.794Z,2.14
2023-01-18T14:27:46.808Z,2.10
2023-01-18T14:28:46.799Z,2.04
2023-01-18T14:29:46.787Z,2.02
2023-01-18T14:30:46.792Z,1.97
2023-01-18T14:31:46.764Z,1.94
2023-01-18T14:32:46.728Z,1.91
2023-01-18T14:33:46.744Z,1.85
2023-01-18T14:34:46.737Z,1.77
2023-01-18T14:35:46.746Z,1.73
2023-01-18T14:36:46.715Z,1.68
2023-01-18T14:37:46.699Z,1.60
2023-01-18T14:38:49.681Z,1.58
2023-01-18T14:39:46.660Z,1.53
2023-01-18T14:40:46.636Z,1.41
2023-01-18T14:41:46.661Z,1.38
2023-01-18T14:42:46.638Z,1.37
2023-01-18T14:43:46.630Z,1.32
2023-01-18T14:44:57.796Z,1.31
2023-01-18T14:45:46.579Z,1.31
2023-01-18T14:46:49.131Z,1.28
2023-01-18T14:47:46.584Z,1.28
2023-01-18T14:48:46.552Z,1.28
2023-01-18T14:49:46.549Z,1.28
2023-01-18T14:50:46.540Z,1.28
2023-01-18T14:51:46.523Z,1.20
2023-01-18T14:52:46.569Z,1.19
2023-01-18T14:53:49.531Z,1.17
2023-01-18T14:54:46.533Z,1.19
2023-01-18T14:55:46.513Z,1.19
2023-01-18T14:56:46.478Z,1.19
2023-01-18T14:57:46.496Z,1.17
2023-01-18T14:58:46.464Z,1.17
2023-01-18T14:59:46.450Z,1.14
2023-01-18T15:00:47.537Z,1.13
2023-01-18T15:01:46.549Z,1.14
2023-01-18T15:02:46.540Z,1.12
2023-01-18T15:03:46.425Z,1.13
2023-01-18T15:04:46.424Z,1.13
2023-01-18T15:05:46.414Z,1.16
2023-01-18T15:06:46.413Z,1.13
2023-01-18T15:07:46.373Z,1.12
2023-01-18T15:08:49.377Z,1.10
2023-01-18T15:09:46.376Z,1.12
2023-01-18T15:10:46.386Z,1.12
2023-01-18T15:11:46.354Z,1.13
2023-01-18T15:12:46.335Z,1.16
2023-01-18T15:13:46.353Z,1.14
2023-01-18T15:14:46.320Z,1.19
2023-01-18T15:15:46.284Z,1.19
2023-01-18T15:16:46.276Z,1.20
2023-01-18T15:17:46.325Z,1.20
2023-01-18T15:18:46.274Z,1.24
2023-01-18T15:19:46.278Z,1.24
2023-01-18T15:20:46.229Z,1.26
2023-01-18T15:21:46.219Z,1.31
2023-01-18T15:22:46.256Z,1.30
2023-01-18T15:23:49.210Z,1.31
2023-01-18T15:24:46.270Z,1.30
2023-01-18T15:25:46.197Z,1.24
2023-01-18T15:26:46.165Z,1.23
2023-01-18T15:27:46.156Z,1.23
2023-01-18T15:28:46.174Z,1.22
2023-01-18T15:29:46.144Z,1.19
2023-01-18T15:30:46.148Z,1.16
2023-01-18T15:31:46.134Z,1.16
2023-01-18T15:32:46.133Z,1.17
2023-01-18T15:33:46.116Z,1.17
2023-01-18T15:34:46.092Z,1.17
2023-01-18T15:35:48.006Z,1.16
2023-01-18T15:36:46.088Z,1.17
2023-01-18T15:37:46.060Z,1.19
2023-01-18T15:38:49.045Z,1.20
2023-01-18T15:39:46.082Z,1.19
2023-01-18T15:40:46.031Z,1.19
2023-01-18T15:41:46.009Z,1.20
2023-01-18T15:42:46.064Z,1.19
2023-01-18T15:43:46.060Z,1.17
2023-01-18T15:44:45.986Z,1.17
2023-01-18T15:45:45.986Z,1.19
2023-01-18T15:46:45.970Z,1.16
2023-01-18T15:47:45.982Z,1.16
2023-01-18T15:48:46.003Z,1.16
2023-01-18T15:49:45.948Z,1.14
2023-01-18T15:50:45.956Z,1.14
2023-01-18T15:51:45.924Z,1.13
2023-01-18T15:52:45.911Z,1.14
2023-01-18T15:53:48.987Z,1.14
2023-01-18T15:54:45.897Z,1.16
2023-01-18T15:55:45.869Z,1.12
2023-01-18T15:56:45.869Z,1.10
2023-01-18T15:57:45.862Z,1.10
2023-01-18T15:58:46.030Z,1.10
2023-01-18T15:59:45.869Z,1.08
2023-01-18T16:00:45.971Z,1.08
2023-01-18T16:01:45.940Z,1.06
2023-01-18T16:02:45.835Z,1.05
2023-01-18T16:03:45.790Z,1.06
2023-01-18T16:04:45.827Z,1.06
2023-01-18T16:05:45.790Z,1.05
2023-01-18T16:06:45.775Z,1.06
2023-01-18T16:07:45.763Z,1.05
2023-01-18T16:08:49.753Z,1.05
2023-01-18T16:09:45.872Z,1.05
2023-01-18T16:10:45.752Z,1.02
2023-01-18T16:11:45.786Z,1.02
2023-01-18T16:12:45.750Z,1.04
2023-01-18T16:13:45.744Z,1.04
2023-01-18T16:14:45.787Z,1.04
2023-01-18T16:15:45.741Z,1.01
2023-01-18T16:16:45.737Z,1.02
2023-01-18T16:17:45.734Z,0.96
2023-01-18T16:18:45.704Z,0.92
2023-01-18T16:19:45.687Z,0.87
2023-01-18T16:20:45.711Z,0.84
2023-01-18T16:21:45.709Z,0.83
2023-01-18T16:22:46.604Z,0.80
2023-01-18T16:23:48.654Z,0.76
2023-01-18T16:24:45.599Z,0.69
2023-01-18T16:25:45.583Z,0.69
2023-01-18T16:26:45.615Z,0.68
2023-01-18T16:27:45.625Z,0.65
2023-01-18T16:28:45.619Z,0.63
2023-01-18T16:29:45.606Z,0.62
2023-01-18T16:30:45.671Z,0.62
2023-01-18T16:31:45.575Z,0.60
2023-01-18T16:32:45.594Z,0.60
2023-01-18T16:33:45.547Z,0.60
2023-01-18T16:34:45.539Z,0.58
2023-01-18T16:35:45.539Z,0.60
2023-01-18T16:36:45.574Z,0.58
2023-01-18T16:37:45.561Z,0.59
2023-01-18T16:38:48.497Z,0.60
2023-01-18T16:39:45.548Z,0.60
2023-01-18T16:40:45.479Z,0.59
2023-01-18T16:41:45.488Z,0.56
2023-01-18T16:42:45.462Z,0.60
2023-01-18T16:43:45.499Z,0.60
2023-01-18T16:44:45.468Z,0.59
2023-01-18T16:45:45.491Z,0.58
2023-01-18T16:46:45.740Z,0.56
2023-01-18T16:47:45.429Z,0.56
2023-01-18T16:48:45.421Z,0.56
2023-01-18T16:49:45.420Z,0.56
2023-01-18T16:50:45.369Z,0.58
2023-01-18T16:51:45.393Z,0.55
2023-01-18T16:52:45.359Z,0.56
2023-01-18T16:53:48.373Z,0.49
2023-01-18T16:54:45.352Z,0.46
2023-01-18T16:55:45.354Z,0.43
2023-01-18T16:56:45.319Z,0.41
2023-01-18T16:57:45.364Z,0.39
2023-01-18T16:58:45.329Z,0.40
2023-01-18T16:59:45.348Z,0.40
2023-01-18T17:00:45.303Z,0.43
2023-01-18T17:01:45.433Z,0.46
2023-01-18T17:02:45.285Z,0.44
2023-01-18T17:03:45.255Z,0.44
2023-01-18T17:04:45.278Z,0.43
2023-01-18T17:05:45.222Z,0.40
2023-01-18T17:06:45.247Z,0.40
2023-01-18T17:07:45.202Z,0.39
2023-01-18T17:08:48.231Z,0.39
2023-01-18T17:09:48.711Z,0.39
2023-01-18T17:10:45.174Z,0.40
2023-01-18T17:11:45.207Z,0.40
2023-01-18T17:12:45.161Z,0.40
2023-01-18T17:13:45.142Z,0.40
2023-01-18T17:14:45.132Z,0.41
2023-01-18T17:15:45.187Z,0.40
2023-01-18T17:16:45.230Z,0.40
2023-01-18T17:17:45.144Z,0.43
2023-01-18T17:18:45.095Z,0.43
2023-01-18T17:19:45.119Z,0.44
2023-01-18T17:20:45.102Z,0.44
2023-01-18T17:21:46.977Z,0.43
2023-01-18T17:22:45.081Z,0.40
2023-01-18T17:23:48.076Z,0.41
2023-01-18T17:24:45.066Z,0.41
2023-01-18T17:25:45.064Z,0.41
2023-01-18T17:26:45.051Z,0.40
2023-01-18T17:27:45.036Z,0.40
2023-01-18T17:28:44.996Z,0.39
2023-01-18T17:29:45.015Z,0.37
2023-01-18T17:30:45.021Z,0.37
2023-01-18T17:31:52.187Z,0.37
2023-01-18T17:32:44.953Z,0.36
2023-01-18T17:33:44.964Z,0.34
2023-01-18T17:34:44.995Z,0.36
2023-01-18T17:35:44.954Z,0.32
2023-01-18T17:36:44.946Z,0.32
2023-01-18T17:37:44.930Z,0.31
2023-01-18T17:38:47.945Z,0.31
2023-01-18T17:40:09.434Z,0.31
2023-01-18T17:40:45.901Z,0.31
2023-01-18T17:41:44.906Z,0.29
2023-01-18T17:42:44.886Z,0.31
2023-01-18T17:43:44.876Z,0.34
2023-01-18T17:44:44.849Z,0.34
2023-01-18T17:45:58.663Z,0.32
2023-01-18T17:46:45.862Z,0.36
2023-01-18T17:47:44.816Z,0.34
2023-01-18T17:48:44.803Z,0.34
2023-01-18T17:49:44.843Z,0.31
2023-01-18T17:50:44.808Z,0.32
2023-01-18T17:51:44.812Z,0.31
2023-01-18T17:52:44.779Z,0.31
2023-01-18T17:53:47.757Z,0.29
2023-01-18T17:54:44.757Z,0.32
2023-01-18T17:55:44.847Z,0.31
2023-01-18T17:56:44.760Z,0.29
2023-01-18T17:57:44.744Z,0.32
2023-01-18T17:58:44.727Z,0.29
2023-01-18T17:59:44.719Z,0.31
2023-01-18T18:00:44.728Z,0.32
2023-01-18T18:01:44.856Z,0.28
2023-01-18T18:02:44.719Z,0.26
2023-01-18T18:03:44.694Z,0.25
2023-01-18T18:04:44.645Z,0.26
2023-01-18T18:05:44.692Z,0.23
2023-01-18T18:06:53.700Z,0.25
2023-01-18T18:07:44.639Z,0.21
2023-01-18T18:08:47.655Z,0.18
2023-01-18T18:09:44.608Z,0.16
2023-01-18T18:10:44.588Z,0.18
2023-01-18T18:11:44.588Z,0.12
2023-01-18T18:12:44.587Z,0.12
2023-01-18T18:13:44.590Z,0.12
2023-01-18T18:14:44.607Z,0.12
2023-01-18T18:15:44.536Z,0.18
2023-01-18T18:16:44.601Z,0.16
2023-01-18T18:17:44.510Z,0.15
2023-01-18T18:18:44.528Z,0.16
2023-01-18T18:19:44.493Z,0.12
2023-01-18T18:20:44.520Z,0.12
2023-01-18T18:21:44.474Z,0.11
2023-01-18T18:22:44.461Z,0.10
2023-01-18T18:23:47.444Z,0.10
2023-01-18T18:24:44.452Z,0.07
2023-01-18T18:25:44.470Z,0.04
2023-01-18T18:26:44.450Z,0.03
2023-01-18T18:27:45.650Z,0.04
2023-01-18T18:28:44.430Z,0.04
2023-01-18T18:29:44.416Z,0.04
2023-01-18T18:30:44.390Z,0.00
2023-01-18T18:31:44.384Z,0.01
2023-01-18T18:32:44.374Z,0.01
2023-01-18T18:33:44.386Z,0.04
2023-01-18T18:34:44.342Z,0.04
2023-01-18T18:35:44.332Z,0.04
2023-01-18T18:36:44.534Z,0.07